Weather at Dunsmuir Muni-Mott Airport

Public forecast

Using degrees Fahrenheit for public forecast. Weather courtesy of forecast.io.

Closest aviation weather report (METAR) to Dunsmuir Muni-Mott Airport

Report is more than 6 hours old.

Closest report is Trinity Center Airport, 25.4 nm (47.1 km) SW. Retrieved 2020/09/25 08:50 UTC (9 months ago):

KO86 250850Z AUTO 27004KT 10SM BKN040 10/05 A3006 RMK AO1

Closest aviation forecast (TAF) to Dunsmuir Muni-Mott Airport

Closest forecast is Redding Municipal Airport, 45.3 nm (83.9 km) S. Retrieved 2021/06/21 06:24 UTC (3 hours ago):

TAF KRDD 210520Z 2106/2206 VRB05KT P6SM SKC FM211900 19006KT P6SM BKN250 FM212200 18017G23KT P6SM SCT250